Weather at Gdańsk Lech Wałęsa Airport

Public forecast

Using degrees Celsius for public forecast. Weather courtesy of forecast.io.

Current aviation weather report (METAR) for Gdańsk Lech Wałęsa Airport

2024/05/29 21:30 (retrieved 17 minutes ago)

EPGD 292130Z VRB01KT CAVOK 12/11 Q1012

Aviation forecast (TAF) for Gdańsk Lech Wałęsa Airport

2024/05/29 18:33 (retrieved 3 hours ago)

TAF TAF EPGD 291730Z 2918/3018 08010KT CAVOK BECMG 2922/2924 VRB02KT PROB30 3000/3005 2000 BR BKN003 BECMG 3010/3012 07010KT TEMPO 3010/3018 4000 TSRA BKN030CB PROB30 3012/3018 1000 TSGR